Weskan, KS (67762)

3:37 AM MST on December 07, 2016 (GMT -0700)
Reiss Farms | | Change Station

Elev 3802 ft 38.83 °N, 101.92 °W | Updated 6 minutes ago

Overcast
Overcast
23.9 °F
Feels Like 18 °F
N
5.0
Wind Variable Wind from ENE
Gusts 6.0 mph

Today
High -- | Low -- °F
--% Chance of Precip.
Yesterday
High -- | Low -- °F
Precip. -- in
Pressure 30.08 in
Visibility 10.0 miles
Clouds Few 4100 ft
Overcast 5000 ft
Windchill 18 °F
Dew Point 7 °F
Humidity 51%
Rainfall 0.00 in
Snow Depth Not available.
6:53 AM 4:25 PM
Waxing Crescent, 51% visible
METAR KITR 070953Z AUTO 04012KT 10SM FEW041 OVC050 M06/M13 A3000 RMK AO2 SLP185 T10561133
Pressure 30.08 in
Visibility 10.0 miles
Clouds Few 4100 ft
Overcast 5000 ft
Windchill 18 °F
Dew Point 7 °F
Humidity 51%
Rainfall 0.00 in
Snow Depth Not available.
6:53 AM 4:25 PM
Waxing Crescent, 51% visible
METAR KITR 070953Z AUTO 04012KT 10SM FEW041 OVC050 M06/M13 A3000 RMK AO2 SLP185 T10561133

10-Day Weather Forecast

Almanac

Astronomy

Dec. 07, 2016 Rise Set
Actual Time
Civil Twilight
Nautical Twilight
Astronomical Twilight
Moon
Length of Visible Light
Length of Day
Tomorrow will be .
, % of the Moon is Illuminated

Today's Extremes

State Highs State Lows

Community

WunderPhotos

Upload Photos

1,956,111 photos uploaded!

WunderBlog® & News

Nearby

Air Quality

  Air Quality AQ Index Pollutant
Not available.

Snow Depth

Station Depth Elevation

Earthquake Activity

City Distance Mag. Time & Date
Minimum magnitude displayed is 2.5.

Coastal Water Temperatures

Place Temperature

Stations

Nearby Weather Stations

Station Location Temp. Windchill Dew Point Humidity Wind Precip. Elev Updated Type
                   

Watches & Warnings

There are currently no watches in effect.